• Join FlightAware (Why Join?)
  • Login
  • US Flag GB Flag 
07:12 EDT


 

Airport Tracker/Info


-or-


 

Live Flight TrackerFlight Track Log ✈ AWE2690 ✈ 24-Jul-2013 ✈ KCLT - KIND

Flight Track Log - Related Links

Times and Time Zones

All times are in EDT time to prevent confusion due to time zone crossing. See the AWE2690 flight status page for this flight to view local times or setup timezone preferences in your user account.

Time Position Orientation Groundspeed Altitude Reporting Facility
EDT Latitude Longitude Course Direction KTS MPH feet Rate Location/Type
16:06 35.1886 -80.9358 North 173 199 1,500  Level Atlanta Center
16:08 35.1100 -80.9617 195° South 261 300 3,400 1,860 Climbing Atlanta Center
16:09 35.0959 -81.1503 287° West  Level FlightAware Approximate
16:09 35.0933 -81.0483 257° West 285 328 5,900  Level Atlanta Center
16:09 35.0931 -81.1144 270° West 281 323 7,400 2,400 Climbing Atlanta Center
16:10 35.1551 -81.2167 North  Level FlightAware Approximate
16:10 35.1506 -81.1708 321° Northwest 301 346 9,800  Level Atlanta Center
16:11 35.2563 -81.2167 North  Level FlightAware Approximate
16:11 35.2311 -81.1325 21° North 327 376 11,500  Level Atlanta Center
16:12 35.3175 -81.0836 25° Northeast 340 391 13,500 1,200 Climbing Atlanta Center
16:13 35.4028 -81.0731 North 341 392 14,000 240 Climbing Atlanta Center
16:14 35.4850 -81.0139 30° Northeast 381 438 14,000 60 Level Atlanta Center
16:15 35.5803 -80.9925 10° North 353 406 14,200 600 Climbing Atlanta Center
16:16 35.6772 -80.9453 22° Northeast 353 406 15,200 1,200 Climbing Atlanta Center
16:17 35.7803 -80.8928 22° Northeast 384 442 16,600 1,200 Climbing Atlanta Center
16:18 35.8819 -80.9556 333° Northwest 379 436 17,700 1,260 Climbing Atlanta Center
16:19 35.9836 -81.0236 332° Northwest 395 455 19,200 1,320 Climbing Atlanta Center
16:20 36.0875 -81.0892 333° Northwest 407 468 20,400 1,140 Climbing Atlanta Center
16:21 36.1975 -81.1519 335° Northwest 422 486 21,500 1,200 Climbing Atlanta Center
16:22 36.3072 -81.2150 335° Northwest 433 498 22,800 1,140 Climbing Atlanta Center
16:23 36.4214 -81.2728 338° Northwest 433 498 23,800 960 Climbing Atlanta Center
16:24 36.5131 -81.3628 322° Northwest 438 504 24,800 840 Climbing Atlanta Center
16:25 36.5781 -81.4872 303° West 425 489 25,500 600 Climbing Atlanta Center
16:26 36.6347 -81.6044 301° West 436 502 26,100 720 Climbing Atlanta Center
16:27 36.7019 -81.7317 303° West 443 510 27,000 900 Climbing Atlanta Center
16:28 36.7731 -81.8567 305° West 443 510 27,900 900 Climbing Atlanta Center
16:30 36.8819 -82.0281 308° West 430 495 29,200 1,200 Climbing Indianapolis Center
16:31 36.9436 -82.1536 302° West 425 489 30,800 1,200 Climbing Indianapolis Center
16:32 37.0039 -82.2747 302° West 414 476 31,800 780 Climbing Indianapolis Center
16:33 37.0636 -82.3975 301° West 414 476 32,500 960 Climbing Indianapolis Center
16:34 37.1242 -82.5192 302° West 414 476 33,800 720 Climbing Indianapolis Center
16:35 37.1936 -82.6600 302° West 411 473 34,000 60 Climbing Indianapolis Center
16:36 37.2553 -82.7869 301° West 425 489 34,000  Level Indianapolis Center
16:37 37.3189 -82.9172 302° West 437 503 34,000  Level Indianapolis Center
16:38 37.3819 -83.0464 302° West 437 503 34,000  Level Indianapolis Center
16:39 37.4561 -83.2000 301° West 440 506 34,000  Level Indianapolis Center
16:40 37.5181 -83.3306 301° West 437 503 34,000  Level Indianapolis Center
16:41 37.5819 -83.4625 301° West 441 507 34,000  Level Indianapolis Center
16:42 37.6450 -83.5947 301° West 441 507 34,000  Level Indianapolis Center
16:43 37.7081 -83.7275 301° West 441 507 34,000  Level Indianapolis Center
16:44 37.7817 -83.8817 301° West 440 506 34,000  Level Indianapolis Center
16:45 37.8450 -84.0153 301° West 442 509 34,000 -300 Level Indianapolis Center
16:46 37.9064 -84.1472 301° West 437 503 33,400 -900 Descending Indianapolis Center
16:47 37.9669 -84.2778 300° West 432 497 32,200 -1,200 Descending Indianapolis Center
16:48 38.0292 -84.4103 301° West 435 501 31,000 -1,140 Descending Indianapolis Center
16:49 38.0914 -84.5483 300° West 447 514 29,900 -1,260 Descending Indianapolis Center
16:50 38.1653 -84.7050 301° West 443 510 28,500 -960 Descending Indianapolis Center
16:51 38.2275 -84.8403 300° West 446 513 28,000 -300 Descending Indianapolis Center
16:52 38.2883 -84.9775 299° West 443 510 28,000  Level Indianapolis Center
16:53 38.3525 -85.1097 302° West 440 506 28,000 -660 Level Indianapolis Center
16:54 38.4186 -85.2589 300° West 439 505 26,700 -1,440 Descending Indianapolis Center
16:55 38.4806 -85.3961 300° West 445 512 25,100 -1,320 Descending Indianapolis Center
16:56 38.5408 -85.5292 300° West 434 499 24,000 -1,320 Descending Indianapolis Center
16:57 38.6228 -85.6361 314° West 436 502 22,400 -1,740 Descending Indianapolis Center
16:59 38.7356 -85.6617 350° North 426 490 20,500 -2,280 Descending Indianapolis Center
17:00 38.8719 -85.6867 352° North 415 478 17,700 -2,460 Descending Indianapolis Center
17:01 38.9800 -85.7058 352° North 398 458 15,500 -2,160 Descending Indianapolis Center
17:02 39.0861 -85.7250 352° North 390 449 13,300 -2,160 Descending Indianapolis Center
17:03 39.1892 -85.7431 352° North 378 435 11,100 -1,680 Descending Indianapolis Center
17:04 39.2883 -85.7614 352° North 366 421 9,900 -600 Descending Indianapolis Center
17:05 39.3817 -85.8483 324° Northwest 356 410 9,900  Level Indianapolis Center
17:06 39.4536 -85.9344 317° Northwest 354 407 9,900 -240 Level Indianapolis Center
17:07 39.5122 -86.0042 317° Northwest 291 335 9,500 -1,020 Descending Indianapolis Center
17:08 39.5672 -86.0694 318° Northwest 271 312 7,800 -1,260 Descending Indianapolis Center
17:09 39.6036 -86.1514 300° West 274 315 7,000 -1,020 Descending Indianapolis Center
17:10 39.6125 -86.2522 277° West 278 320 5,700 -1,260 Descending Indianapolis Center